createdAt,value
2024-01-04T00:01:14.155Z,77.66
2024-01-04T00:03:41.183Z,77.57
2024-01-04T00:06:07.596Z,77.67
2024-01-04T00:08:34.240Z,77.68
2024-01-04T00:11:05.031Z,77.80
2024-01-04T00:13:31.056Z,77.74
2024-01-04T00:15:57.424Z,78.08
2024-01-04T00:18:23.734Z,77.98
2024-01-04T00:20:50.172Z,77.59
2024-01-04T00:23:17.193Z,77.64
2024-01-04T00:25:43.315Z,77.76
2024-01-04T00:28:09.444Z,77.72
2024-01-04T00:30:35.767Z,77.84
2024-01-04T00:33:01.914Z,76.89
2024-01-04T00:35:28.482Z,77.17
2024-01-04T00:37:54.531Z,77.36
2024-01-04T00:40:21.454Z,77.31
2024-01-04T00:42:47.484Z,77.03
2024-01-04T00:45:13.684Z,76.95
2024-01-04T00:47:40.015Z,77.12
2024-01-04T00:50:06.965Z,77.24
2024-01-04T00:52:33.006Z,77.09
2024-01-04T00:54:58.987Z,77.25
2024-01-04T00:57:25.111Z,77.25
2024-01-04T00:59:51.225Z,77.27
2024-01-04T01:02:17.597Z,76.67
2024-01-04T01:04:44.344Z,76.87
2024-01-04T01:07:10.341Z,76.85
2024-01-04T01:09:36.577Z,76.65
2024-01-04T01:12:03.109Z,76.98
2024-01-04T01:14:29.161Z,76.79
2024-01-04T01:16:55.736Z,76.58
2024-01-04T01:19:21.912Z,77.24
2024-01-04T01:21:48.040Z,77.53
2024-01-04T01:24:14.142Z,77.35
2024-01-04T01:26:41.125Z,77.31
2024-01-04T01:29:07.850Z,77.51
2024-01-04T01:31:39.621Z,77.23
2024-01-04T01:34:06.710Z,77.28
2024-01-04T01:36:33.067Z,77.01
2024-01-04T01:38:59.149Z,77.07
2024-01-04T01:41:25.301Z,77.22
2024-01-04T01:43:51.289Z,77.23
2024-01-04T01:46:18.257Z,77.23
2024-01-04T01:48:45.373Z,77.51
2024-01-04T01:51:11.977Z,77.51
2024-01-04T01:53:39.036Z,77.61
2024-01-04T01:56:05.453Z,78.03
2024-01-04T01:58:31.681Z,77.80
2024-01-04T02:00:58.148Z,77.64
2024-01-04T02:03:24.313Z,77.66
2024-01-04T02:05:50.549Z,77.98
2024-01-04T02:08:16.747Z,77.85
2024-01-04T02:10:42.938Z,77.77
2024-01-04T02:13:10.901Z,77.65
2024-01-04T02:15:37.420Z,77.40
2024-01-04T02:18:04.163Z,77.66
2024-01-04T02:20:30.313Z,77.97
2024-01-04T02:22:56.531Z,78.07
2024-01-04T02:25:22.570Z,78.06
2024-01-04T02:27:48.726Z,77.88
2024-01-04T02:30:14.910Z,77.99
2024-01-04T02:32:41.759Z,77.99
2024-01-04T02:35:08.698Z,78.05
2024-01-04T02:37:34.740Z,78.44
2024-01-04T02:40:00.876Z,78.23
2024-01-04T02:42:26.907Z,78.24
2024-01-04T02:44:53.149Z,78.21
2024-01-04T02:47:19.539Z,78.15
2024-01-04T02:49:45.570Z,78.00
2024-01-04T02:52:11.874Z,78.21
2024-01-04T02:54:39.343Z,78.22
2024-01-04T02:57:05.686Z,78.08
2024-01-04T02:59:31.971Z,78.25
2024-01-04T03:01:58.117Z,78.25
2024-01-04T03:04:24.091Z,78.25
2024-01-04T03:06:51.226Z,78.33
2024-01-04T03:09:17.332Z,78.26
2024-01-04T03:11:43.728Z,78.52
2024-01-04T03:14:09.828Z,78.55
2024-01-04T03:16:36.004Z,78.64
2024-01-04T03:19:02.487Z,78.57
2024-01-04T03:21:28.623Z,78.64
2024-01-04T03:23:54.647Z,78.75
2024-01-04T03:26:20.751Z,78.35
2024-01-04T03:28:46.743Z,78.45
2024-01-04T03:31:14.447Z,78.56
2024-01-04T03:33:40.889Z,78.88
2024-01-04T03:36:08.300Z,79.07
2024-01-04T03:38:34.914Z,78.96
2024-01-04T03:41:03.756Z,78.80
2024-01-04T03:43:29.853Z,78.80
2024-01-04T03:45:56.030Z,78.90
2024-01-04T03:48:22.163Z,78.92
2024-01-04T03:50:48.630Z,78.94
2024-01-04T03:53:14.906Z,78.87
2024-01-04T03:55:41.090Z,78.62
2024-01-04T03:58:07.123Z,78.78
2024-01-04T04:00:33.599Z,78.52
2024-01-04T04:02:59.840Z,78.71
2024-01-04T04:05:25.967Z,78.61
2024-01-04T04:07:52.062Z,78.48
2024-01-04T04:10:18.134Z,78.59
2024-01-04T04:12:44.391Z,78.83
2024-01-04T04:15:10.800Z,78.54
2024-01-04T04:17:37.403Z,78.42
2024-01-04T04:20:04.450Z,78.79
2024-01-04T04:22:30.573Z,78.77
2024-01-04T04:24:56.777Z,78.58
2024-01-04T04:27:22.908Z,78.46
2024-01-04T04:29:49.415Z,78.34
2024-01-04T04:32:15.861Z,78.39
2024-01-04T04:34:42.663Z,78.34
2024-01-04T04:37:08.946Z,78.46
2024-01-04T04:39:35.054Z,78.43
2024-01-04T04:42:01.404Z,78.35
2024-01-04T04:44:27.622Z,78.33
2024-01-04T04:46:54.026Z,78.49
2024-01-04T04:49:20.420Z,78.62
2024-01-04T04:51:49.480Z,78.53
2024-01-04T04:54:18.921Z,78.76
2024-01-04T04:56:45.430Z,78.66
2024-01-04T04:59:12.886Z,79.15
2024-01-04T05:01:43.833Z,78.86
2024-01-04T05:04:10.064Z,78.95
2024-01-04T05:06:36.381Z,78.99
2024-01-04T05:09:02.777Z,79.07
2024-01-04T05:11:28.859Z,79.04
2024-01-04T05:13:55.023Z,78.70
2024-01-04T05:16:21.236Z,78.65
2024-01-04T05:18:47.499Z,78.62
2024-01-04T05:21:13.700Z,78.49
2024-01-04T05:23:39.926Z,78.54
2024-01-04T05:26:07.036Z,78.67
2024-01-04T05:28:33.012Z,78.44
2024-01-04T05:30:59.407Z,78.49
2024-01-04T05:33:25.793Z,78.59
2024-01-04T05:35:52.941Z,78.93
2024-01-04T05:38:18.951Z,78.85
2024-01-04T05:40:44.966Z,79.09
2024-01-04T05:43:11.128Z,79.05
2024-01-04T05:45:37.383Z,79.03
2024-01-04T05:48:03.779Z,78.92
2024-01-04T05:50:29.968Z,78.77
2024-01-04T05:52:55.984Z,79.21
2024-01-04T05:55:22.002Z,79.52
2024-01-04T05:57:48.105Z,79.18
2024-01-04T06:00:17.885Z,79.08
2024-01-04T06:02:44.838Z,79.16
2024-01-04T06:05:11.067Z,79.45
2024-01-04T06:07:37.155Z,78.99
2024-01-04T06:10:03.514Z,78.92
2024-01-04T06:12:29.528Z,78.81
2024-01-04T06:14:55.539Z,78.92
2024-01-04T06:17:21.665Z,78.59
2024-01-04T06:19:47.761Z,78.64
2024-01-04T06:22:14.339Z,78.57
2024-01-04T06:24:40.376Z,78.62
2024-01-04T06:27:06.551Z,78.76
2024-01-04T06:29:32.664Z,78.82
2024-01-04T06:31:58.788Z,78.64
2024-01-04T06:34:24.917Z,78.37
2024-01-04T06:36:51.044Z,78.81
2024-01-04T06:39:17.541Z,78.39
2024-01-04T06:41:45.436Z,78.55
2024-01-04T06:44:11.718Z,78.69
2024-01-04T06:46:38.131Z,78.40
2024-01-04T06:49:04.452Z,78.42
2024-01-04T06:51:30.581Z,78.04
2024-01-04T06:53:59.771Z,78.18
2024-01-04T06:56:26.869Z,78.29
2024-01-04T06:58:53.065Z,78.85
2024-01-04T07:01:20.370Z,78.23
2024-01-04T07:03:47.275Z,78.01
2024-01-04T07:06:14.053Z,77.89
2024-01-04T07:08:40.210Z,77.82
2024-01-04T07:11:06.314Z,77.63
2024-01-04T07:13:35.487Z,77.41
2024-01-04T07:16:05.316Z,77.51
2024-01-04T07:18:31.455Z,77.44
2024-01-04T07:20:57.643Z,76.63
2024-01-04T07:23:23.778Z,77.08
2024-01-04T07:25:49.857Z,76.61
2024-01-04T07:28:16.997Z,76.64
2024-01-04T07:30:43.075Z,76.88
2024-01-04T07:33:09.401Z,76.91
2024-01-04T07:35:35.640Z,76.91
2024-01-04T07:38:01.803Z,77.23
2024-01-04T07:40:27.787Z,77.68
2024-01-04T07:42:53.743Z,77.56
2024-01-04T07:45:19.862Z,77.39
2024-01-04T07:47:46.063Z,77.78
2024-01-04T07:50:12.604Z,77.94
2024-01-04T07:52:39.459Z,77.80
2024-01-04T07:55:07.669Z,77.45
2024-01-04T07:57:34.254Z,77.37
2024-01-04T08:00:00.415Z,77.27
2024-01-04T08:02:29.219Z,76.80
2024-01-04T08:04:55.288Z,76.94
2024-01-04T08:07:21.505Z,76.98
2024-01-04T08:09:47.556Z,77.04
2024-01-04T08:12:13.844Z,77.05
2024-01-04T08:14:40.120Z,76.89
2024-01-04T08:17:06.356Z,76.71
2024-01-04T08:19:32.633Z,76.57
2024-01-04T08:21:58.814Z,76.75
2024-01-04T08:24:25.051Z,77.05
2024-01-04T08:26:51.356Z,76.76
2024-01-04T08:29:18.627Z,77.05
2024-01-04T08:31:44.700Z,76.46
2024-01-04T08:34:11.094Z,77.06
2024-01-04T08:36:37.738Z,77.08
2024-01-04T08:39:06.828Z,77.35
2024-01-04T08:41:32.917Z,76.79
2024-01-04T08:43:59.100Z,77.41
2024-01-04T08:46:25.137Z,77.36
2024-01-04T08:48:51.383Z,77.54
2024-01-04T08:51:17.670Z,77.49
2024-01-04T08:53:43.893Z,78.06
2024-01-04T08:56:10.187Z,77.98
2024-01-04T08:58:37.032Z,78.18
2024-01-04T09:01:03.356Z,77.88
2024-01-04T09:03:29.657Z,77.60
2024-01-04T09:05:56.166Z,77.65
2024-01-04T09:08:22.280Z,77.44
2024-01-04T09:10:48.433Z,77.70
2024-01-04T09:13:14.544Z,78.35
2024-01-04T09:15:40.598Z,78.28
2024-01-04T09:18:06.855Z,78.35
2024-01-04T09:20:33.128Z,77.98
2024-01-04T09:22:59.266Z,77.67
2024-01-04T09:25:28.224Z,77.90
2024-01-04T09:27:55.468Z,77.40
2024-01-04T09:30:21.865Z,77.20
2024-01-04T09:32:47.984Z,77.31
2024-01-04T09:35:19.795Z,77.26
2024-01-04T09:37:45.892Z,76.82
2024-01-04T09:40:12.676Z,76.08
2024-01-04T09:42:41.487Z,75.77
2024-01-04T09:45:11.941Z,75.79
2024-01-04T09:47:41.875Z,75.60
2024-01-04T09:50:12.201Z,75.78
2024-01-04T09:52:47.500Z,76.03
2024-01-04T09:55:13.696Z,76.40
2024-01-04T09:57:40.070Z,76.00
2024-01-04T10:00:09.295Z,75.97
2024-01-04T10:02:45.439Z,75.99
2024-01-04T10:05:17.472Z,75.42
2024-01-04T10:07:52.681Z,75.15
2024-01-04T10:10:21.490Z,74.91
2024-01-04T10:12:49.209Z,74.82
2024-01-04T10:15:16.051Z,74.71
2024-01-04T10:17:46.391Z,74.75
2024-01-04T10:20:12.625Z,75.23
2024-01-04T10:22:41.161Z,75.08
2024-01-04T10:25:12.040Z,75.16
2024-01-04T10:27:40.174Z,75.34
2024-01-04T10:30:07.936Z,75.24
2024-01-04T10:32:34.856Z,75.02
2024-01-04T10:35:07.364Z,74.76
2024-01-04T10:37:34.452Z,75.07
2024-01-04T10:40:10.210Z,75.00
2024-01-04T10:42:36.287Z,74.68
2024-01-04T10:45:02.441Z,74.17
2024-01-04T10:47:29.940Z,74.15
2024-01-04T10:50:00.465Z,73.37
2024-01-04T10:52:32.862Z,74.16
2024-01-04T10:55:00.476Z,74.27
2024-01-04T10:57:29.027Z,73.53
2024-01-04T10:59:56.476Z,73.34
2024-01-04T11:02:23.597Z,72.66
2024-01-04T11:04:49.792Z,72.37
2024-01-04T11:07:16.724Z,72.90
2024-01-04T11:09:43.737Z,72.08
2024-01-04T11:12:11.179Z,72.24
2024-01-04T11:14:37.349Z,72.23
2024-01-04T11:17:06.453Z,72.31
2024-01-04T11:19:55.066Z,71.20
2024-01-04T11:22:34.363Z,70.50
2024-01-04T11:25:42.271Z,70.77
2024-01-04T11:28:11.502Z,70.24
2024-01-04T11:30:38.297Z,70.50
2024-01-04T11:33:05.009Z,70.22
2024-01-04T11:35:36.503Z,70.79
2024-01-04T11:38:09.927Z,69.62
2024-01-04T11:40:38.035Z,67.39
2024-01-04T11:43:14.759Z,67.06
2024-01-04T11:45:45.270Z,68.28
2024-01-04T11:48:12.566Z,69.03
2024-01-04T11:50:52.198Z,68.51
2024-01-04T11:53:19.027Z,69.24
2024-01-04T11:55:46.327Z,67.94
2024-01-04T11:58:13.957Z,69.03
2024-01-04T12:00:48.242Z,69.61
2024-01-04T12:03:20.735Z,68.12
2024-01-04T12:05:50.756Z,67.40
2024-01-04T12:08:26.371Z,67.76
2024-01-04T12:10:56.335Z,67.52
2024-01-04T12:13:23.439Z,68.16
2024-01-04T12:15:52.200Z,67.92
2024-01-04T12:18:21.151Z,66.49
2024-01-04T12:20:48.679Z,65.96
2024-01-04T12:23:15.830Z,65.70
2024-01-04T12:25:42.462Z,65.36
2024-01-04T12:28:09.438Z,65.45
2024-01-04T12:30:39.223Z,64.71
2024-01-04T12:33:07.145Z,64.72
2024-01-04T12:35:33.226Z,64.59
2024-01-04T12:38:05.828Z,63.75
2024-01-04T12:40:42.037Z,63.81
2024-01-04T12:43:13.471Z,63.54
2024-01-04T12:45:40.035Z,66.14
2024-01-04T12:48:07.764Z,66.46
2024-01-04T12:50:36.164Z,64.26
2024-01-04T12:53:02.641Z,64.14
2024-01-04T12:55:29.203Z,64.34
2024-01-04T12:57:55.677Z,65.45
2024-01-04T13:00:22.430Z,65.24
2024-01-04T13:02:48.749Z,64.56
2024-01-04T13:05:15.014Z,64.87
2024-01-04T13:07:41.079Z,66.01
2024-01-04T13:10:11.206Z,66.82
2024-01-04T13:12:38.058Z,66.75
2024-01-04T13:15:05.369Z,68.14
2024-01-04T13:17:31.718Z,69.03
2024-01-04T13:19:58.871Z,69.06
2024-01-04T13:22:26.714Z,68.49
2024-01-04T13:24:53.419Z,68.73
2024-01-04T13:27:19.800Z,67.77
2024-01-04T13:29:47.593Z,68.41
2024-01-04T13:32:14.780Z,68.92
2024-01-04T13:34:40.991Z,67.89
2024-01-04T13:37:07.125Z,68.83
2024-01-04T13:39:33.488Z,71.09
2024-01-04T13:41:59.630Z,67.75
2024-01-04T13:44:25.751Z,67.03
2024-01-04T13:46:51.813Z,66.53
2024-01-04T13:49:18.952Z,67.30
2024-01-04T13:51:45.125Z,67.39
2024-01-04T13:54:12.494Z,68.87
2024-01-04T13:56:38.988Z,70.19
2024-01-04T13:59:05.905Z,67.97
2024-01-04T14:01:31.946Z,68.03
2024-01-04T14:03:58.144Z,69.47
2024-01-04T14:06:24.894Z,68.86
2024-01-04T14:08:55.329Z,68.81
2024-01-04T14:11:22.083Z,69.30
2024-01-04T14:13:48.648Z,68.92
2024-01-04T14:16:14.749Z,68.58
2024-01-04T14:18:40.766Z,67.74
2024-01-04T14:21:09.456Z,67.67
2024-01-04T14:23:35.703Z,67.97
2024-01-04T14:26:02.561Z,66.96
2024-01-04T14:28:28.687Z,65.39
2024-01-04T14:30:54.847Z,68.20
2024-01-04T14:33:28.952Z,66.54
2024-01-04T14:36:03.032Z,65.68
2024-01-04T14:38:29.285Z,66.32
2024-01-04T14:40:55.382Z,65.42
2024-01-04T14:43:22.162Z,66.75
2024-01-04T14:45:48.162Z,66.75
2024-01-04T14:48:14.388Z,64.61
2024-01-04T14:50:41.479Z,64.90
2024-01-04T14:53:07.453Z,65.28
2024-01-04T14:55:33.615Z,67.11
2024-01-04T14:58:00.370Z,65.37
2024-01-04T15:00:26.515Z,65.62
2024-01-04T15:02:52.758Z,68.37
2024-01-04T15:05:18.981Z,66.29
2024-01-04T15:07:45.048Z,65.51
2024-01-04T15:10:11.232Z,65.05
2024-01-04T15:12:40.238Z,64.50
2024-01-04T15:15:11.166Z,64.55
2024-01-04T15:17:42.550Z,65.66
2024-01-04T15:20:10.870Z,66.64
2024-01-04T15:22:38.037Z,66.81
2024-01-04T15:25:04.496Z,66.39
2024-01-04T15:27:30.527Z,67.41
2024-01-04T15:29:56.583Z,68.05
2024-01-04T15:32:22.972Z,67.60
2024-01-04T15:34:49.035Z,67.84
2024-01-04T15:37:15.389Z,67.41
2024-01-04T15:39:41.471Z,67.83
2024-01-04T15:42:07.680Z,66.87
2024-01-04T15:44:33.923Z,66.42
2024-01-04T15:47:00.240Z,66.56
2024-01-04T15:49:26.438Z,66.86
2024-01-04T15:51:52.674Z,66.90
2024-01-04T15:54:18.961Z,67.03
2024-01-04T15:56:45.096Z,67.22
2024-01-04T15:59:11.638Z,66.72
2024-01-04T16:01:39.878Z,66.43
2024-01-04T16:04:07.826Z,67.06
2024-01-04T16:06:35.391Z,67.13
2024-01-04T16:09:02.162Z,67.19
2024-01-04T16:11:28.479Z,67.41
2024-01-04T16:13:54.486Z,68.13
2024-01-04T16:16:20.713Z,68.91
2024-01-04T16:18:47.076Z,68.68
2024-01-04T16:21:13.426Z,68.36
2024-01-04T16:23:40.132Z,69.09
2024-01-04T16:26:07.969Z,68.90
2024-01-04T16:28:34.605Z,68.67
2024-01-04T16:31:00.666Z,68.58
2024-01-04T16:33:27.518Z,68.77
2024-01-04T16:35:53.839Z,68.97
2024-01-04T16:38:20.170Z,69.48
2024-01-04T16:40:46.743Z,68.85
2024-01-04T16:43:13.038Z,68.97
2024-01-04T16:45:39.367Z,69.25
2024-01-04T16:48:07.729Z,68.93
2024-01-04T16:50:34.532Z,68.51
2024-01-04T16:53:00.751Z,68.26
2024-01-04T16:55:26.906Z,68.27
2024-01-04T16:57:53.082Z,68.24
2024-01-04T17:00:19.315Z,68.49
2024-01-04T17:02:45.496Z,68.80
2024-01-04T17:05:11.636Z,68.77
2024-01-04T17:07:37.902Z,68.88
2024-01-04T17:10:04.411Z,68.86
2024-01-04T17:12:30.615Z,68.95
2024-01-04T17:14:57.448Z,68.78
2024-01-04T17:17:23.425Z,69.29
2024-01-04T17:19:49.439Z,69.64
2024-01-04T17:22:15.520Z,69.81
2024-01-04T17:24:41.648Z,69.18
2024-01-04T17:27:08.027Z,69.02
2024-01-04T17:29:34.087Z,68.88
2024-01-04T17:32:00.054Z,68.99
2024-01-04T17:34:26.242Z,69.29
2024-01-04T17:36:52.349Z,69.74
2024-01-04T17:39:18.463Z,69.60
2024-01-04T17:41:47.394Z,69.77
2024-01-04T17:44:15.846Z,69.88
2024-01-04T17:46:41.924Z,69.77
2024-01-04T17:49:08.151Z,70.30
2024-01-04T17:51:34.527Z,70.32
2024-01-04T17:54:01.215Z,69.88
2024-01-04T17:56:27.335Z,70.01
2024-01-04T17:58:53.381Z,69.85
2024-01-04T18:01:19.637Z,69.97
2024-01-04T18:03:46.436Z,69.96
2024-01-04T18:06:12.589Z,69.92
2024-01-04T18:08:38.824Z,69.98
2024-01-04T18:11:04.885Z,69.89
2024-01-04T18:13:35.491Z,70.09
2024-01-04T18:16:01.920Z,70.16
2024-01-04T18:18:28.131Z,70.24
2024-01-04T18:20:54.338Z,69.96
2024-01-04T18:23:20.469Z,70.16
2024-01-04T18:25:46.605Z,70.50
2024-01-04T18:28:14.561Z,70.64
2024-01-04T18:30:41.401Z,70.77
2024-01-04T18:33:08.322Z,71.26
2024-01-04T18:35:34.495Z,71.18
2024-01-04T18:38:01.739Z,70.96
2024-01-04T18:40:28.349Z,71.63
2024-01-04T18:42:54.282Z,71.66
2024-01-04T18:45:20.985Z,71.74
2024-01-04T18:47:47.104Z,71.91
2024-01-04T18:50:13.812Z,72.60
2024-01-04T18:52:41.285Z,71.99
2024-01-04T18:55:12.292Z,71.96
2024-01-04T18:57:38.376Z,72.00
2024-01-04T19:00:06.072Z,72.12
2024-01-04T19:02:32.202Z,72.49
2024-01-04T19:04:58.456Z,72.75
2024-01-04T19:07:24.498Z,72.53
2024-01-04T19:09:50.583Z,72.35
2024-01-04T19:12:16.810Z,72.48
2024-01-04T19:14:42.956Z,72.23
2024-01-04T19:17:09.319Z,71.86
2024-01-04T19:19:35.862Z,72.71
2024-01-04T19:22:02.150Z,72.29
2024-01-04T19:24:28.479Z,72.61
2024-01-04T19:26:54.554Z,72.58
2024-01-04T19:29:20.801Z,72.17
2024-01-04T19:31:46.919Z,71.78
2024-01-04T19:34:13.112Z,71.64
2024-01-04T19:36:39.507Z,72.12
2024-01-04T19:39:05.811Z,71.84
2024-01-04T19:41:32.033Z,72.04
2024-01-04T19:43:58.153Z,71.86
2024-01-04T19:46:24.756Z,72.50
2024-01-04T19:48:52.088Z,72.14
2024-01-04T19:51:19.494Z,71.84
2024-01-04T19:53:45.588Z,71.95
2024-01-04T19:56:11.628Z,72.21
2024-01-04T19:58:37.801Z,72.27
2024-01-04T20:01:04.238Z,72.16
2024-01-04T20:03:30.586Z,72.09
2024-01-04T20:05:57.029Z,71.91
2024-01-04T20:08:23.172Z,72.27
2024-01-04T20:10:49.344Z,71.98
2024-01-04T20:13:15.704Z,72.39
2024-01-04T20:15:42.472Z,72.73
2024-01-04T20:18:08.896Z,72.91
2024-01-04T20:20:35.196Z,72.62
2024-01-04T20:23:01.285Z,72.65
2024-01-04T20:25:28.188Z,72.84
2024-01-04T20:27:54.701Z,72.76
2024-01-04T20:30:20.759Z,72.83
2024-01-04T20:32:46.976Z,73.25
2024-01-04T20:35:13.107Z,72.86
2024-01-04T20:37:39.154Z,72.97
2024-01-04T20:40:06.098Z,73.18
2024-01-04T20:42:32.373Z,72.97
2024-01-04T20:44:58.775Z,73.24
2024-01-04T20:47:24.888Z,73.53
2024-01-04T20:49:52.068Z,73.81
2024-01-04T20:52:19.007Z,73.93
2024-01-04T20:54:45.171Z,73.76
2024-01-04T20:57:11.363Z,74.16
2024-01-04T20:59:37.967Z,74.51
2024-01-04T21:02:04.038Z,74.86
2024-01-04T21:04:30.107Z,74.63
2024-01-04T21:06:56.161Z,74.45
2024-01-04T21:09:22.404Z,74.23
2024-01-04T21:11:51.911Z,74.27
2024-01-04T21:14:19.378Z,74.19
2024-01-04T21:16:46.030Z,74.24
2024-01-04T21:19:12.494Z,74.38
2024-01-04T21:21:38.775Z,74.44
2024-01-04T21:24:05.534Z,74.30
2024-01-04T21:26:31.665Z,74.58
2024-01-04T21:28:59.203Z,74.16
2024-01-04T21:31:25.661Z,74.46
2024-01-04T21:33:52.131Z,74.29
2024-01-04T21:36:18.824Z,74.24
2024-01-04T21:38:45.103Z,73.76
2024-01-04T21:41:11.217Z,73.86
2024-01-04T21:43:37.257Z,74.11
2024-01-04T21:46:04.514Z,73.66
2024-01-04T21:48:30.789Z,74.17
2024-01-04T21:50:57.402Z,74.15
2024-01-04T21:53:23.438Z,73.67
2024-01-04T21:55:49.542Z,73.75
2024-01-04T21:58:15.586Z,74.22
2024-01-04T22:00:42.106Z,73.98
2024-01-04T22:03:09.465Z,74.00
2024-01-04T22:05:35.676Z,73.70
2024-01-04T22:08:01.926Z,73.67
2024-01-04T22:10:28.984Z,73.45
2024-01-04T22:12:55.519Z,73.35
2024-01-04T22:15:21.807Z,73.18
2024-01-04T22:17:48.060Z,73.17
2024-01-04T22:20:14.511Z,73.32
2024-01-04T22:22:40.733Z,73.49
2024-01-04T22:25:07.483Z,73.59
2024-01-04T22:27:33.636Z,73.65
2024-01-04T22:29:59.759Z,74.02
2024-01-04T22:32:25.931Z,74.07
2024-01-04T22:34:52.067Z,74.04
2024-01-04T22:37:18.214Z,74.13
2024-01-04T22:39:44.520Z,74.12
2024-01-04T22:42:10.605Z,73.54
2024-01-04T22:44:36.872Z,73.60
2024-01-04T22:47:06.396Z,73.80
2024-01-04T22:49:32.532Z,73.80
2024-01-04T22:51:58.937Z,74.09
2024-01-04T22:54:24.990Z,74.16
2024-01-04T22:56:51.187Z,73.94
2024-01-04T22:59:17.878Z,74.28
2024-01-04T23:01:43.836Z,74.05
2024-01-04T23:04:10.032Z,73.88
2024-01-04T23:06:36.208Z,74.13
2024-01-04T23:09:02.266Z,73.91
2024-01-04T23:11:28.301Z,74.43
2024-01-04T23:13:54.357Z,73.86
2024-01-04T23:16:20.626Z,74.27
2024-01-04T23:18:46.673Z,74.16
2024-01-04T23:21:12.843Z,74.14
2024-01-04T23:23:39.098Z,74.59
2024-01-04T23:26:05.255Z,74.24
2024-01-04T23:28:31.313Z,73.83
2024-01-04T23:30:57.501Z,74.28
2024-01-04T23:33:33.454Z,74.35
2024-01-04T23:36:06.954Z,74.24
2024-01-04T23:38:33.268Z,74.08
2024-01-04T23:41:00.000Z,74.42
2024-01-04T23:43:26.014Z,74.52
2024-01-04T23:45:52.865Z,74.15
2024-01-04T23:48:19.173Z,73.90
2024-01-04T23:50:45.315Z,74.14
2024-01-04T23:53:11.558Z,73.98
2024-01-04T23:55:37.579Z,73.70
2024-01-04T23:58:03.687Z,73.89
